sensor_id;sensor_type;location;lat;lon;timestamp;pressure;altitude;pressure_sealevel;temperature;humidity
40502;BME280;29631;49.168;9.848;2022-10-16T00:01:11;96518.97;;;21.50;100.00
40502;BME280;29631;49.168;9.848;2022-10-16T00:03:39;96528.91;;;21.50;100.00
40502;BME280;29631;49.168;9.848;2022-10-16T00:06:05;96525.16;;;21.41;100.00
40502;BME280;29631;49.168;9.848;2022-10-16T00:08:32;96517.22;;;21.26;100.00
40502;BME280;29631;49.168;9.848;2022-10-16T00:11:08;96528.44;;;21.28;100.00
40502;BME280;29631;49.168;9.848;2022-10-16T00:13:35;96517.47;;;21.24;100.00
40502;BME280;29631;49.168;9.848;2022-10-16T00:16:02;96544.03;;;21.26;100.00
40502;BME280;29631;49.168;9.848;2022-10-16T00:18:29;96540.03;;;21.18;100.00
40502;BME280;29631;49.168;9.848;2022-10-16T00:21:00;96545.91;;;21.20;100.00
40502;BME280;29631;49.168;9.848;2022-10-16T00:23:26;96530.66;;;21.16;100.00
40502;BME280;29631;49.168;9.848;2022-10-16T00:26:02;96524.78;;;21.14;100.00
40502;BME280;29631;49.168;9.848;2022-10-16T00:28:28;96533.88;;;21.13;100.00
40502;BME280;29631;49.168;9.848;2022-10-16T00:30:55;96518.88;;;21.02;100.00
40502;BME280;29631;49.168;9.848;2022-10-16T00:33:20;96514.63;;;21.01;100.00
40502;BME280;29631;49.168;9.848;2022-10-16T00:35:47;96522.66;;;21.06;100.00
40502;BME280;29631;49.168;9.848;2022-10-16T00:38:13;96514.88;;;21.05;100.00
40502;BME280;29631;49.168;9.848;2022-10-16T00:40:39;96532.28;;;21.12;100.00
40502;BME280;29631;49.168;9.848;2022-10-16T00:43:42;96527.72;;;21.13;100.00
40502;BME280;29631;49.168;9.848;2022-10-16T00:46:40;96511.16;;;20.96;100.00
40502;BME280;29631;49.168;9.848;2022-10-16T00:49:14;96515.94;;;20.99;100.00
40502;BME280;29631;49.168;9.848;2022-10-16T00:51:45;96516.22;;;20.97;100.00
40502;BME280;29631;49.168;9.848;2022-10-16T00:54:24;96527.50;;;20.99;100.00
40502;BME280;29631;49.168;9.848;2022-10-16T00:56:51;96529.63;;;21.07;100.00
40502;BME280;29631;49.168;9.848;2022-10-16T00:59:24;96529.09;;;21.05;100.00
40502;BME280;29631;49.168;9.848;2022-10-16T01:01:52;96536.03;;;21.11;100.00
40502;BME280;29631;49.168;9.848;2022-10-16T01:04:19;96543.00;;;21.12;100.00
40502;BME280;29631;49.168;9.848;2022-10-16T01:18:30;96552.56;;;21.38;100.00
40502;BME280;29631;49.168;9.848;2022-10-16T01:21:05;96542.94;;;21.32;100.00
40502;BME280;29631;49.168;9.848;2022-10-16T01:29:29;96542.13;;;21.31;100.00
40502;BME280;29631;49.168;9.848;2022-10-16T01:32:05;96540.28;;;21.27;100.00
40502;BME280;29631;49.168;9.848;2022-10-16T01:35:30;96541.06;;;21.27;100.00
40502;BME280;29631;49.168;9.848;2022-10-16T01:40:41;96543.22;;;21.25;100.00
40502;BME280;29631;49.168;9.848;2022-10-16T01:43:20;96554.75;;;21.21;100.00
40502;BME280;29631;49.168;9.848;2022-10-16T01:45:48;96553.19;;;21.20;100.00
40502;BME280;29631;49.168;9.848;2022-10-16T01:48:19;96552.91;;;21.17;100.00
40502;BME280;29631;49.168;9.848;2022-10-16T01:51:04;96559.06;;;21.22;100.00
40502;BME280;29631;49.168;9.848;2022-10-16T01:53:31;96545.38;;;21.28;100.00
40502;BME280;29631;49.168;9.848;2022-10-16T01:55:59;96544.53;;;21.33;100.00
40502;BME280;29631;49.168;9.848;2022-10-16T01:58:27;96520.91;;;21.35;100.00
40502;BME280;29631;49.168;9.848;2022-10-16T02:00:54;96530.56;;;21.36;100.00
40502;BME280;29631;49.168;9.848;2022-10-16T02:03:21;96511.34;;;21.19;100.00
40502;BME280;29631;49.168;9.848;2022-10-16T02:08:17;96535.19;;;21.20;100.00
40502;BME280;29631;49.168;9.848;2022-10-16T02:10:43;96545.41;;;21.14;100.00
40502;BME280;29631;49.168;9.848;2022-10-16T02:13:14;96558.53;;;21.15;100.00
40502;BME280;29631;49.168;9.848;2022-10-16T02:15:42;96550.50;;;21.15;100.00
40502;BME280;29631;49.168;9.848;2022-10-16T02:18:09;96548.38;;;21.12;100.00
40502;BME280;29631;49.168;9.848;2022-10-16T02:20:57;96552.69;;;21.08;100.00
40502;BME280;29631;49.168;9.848;2022-10-16T02:26:52;96545.19;;;20.90;100.00
40502;BME280;29631;49.168;9.848;2022-10-16T02:29:25;96543.59;;;20.89;100.00
40502;BME280;29631;49.168;9.848;2022-10-16T02:31:57;96550.03;;;20.93;100.00
40502;BME280;29631;49.168;9.848;2022-10-16T02:34:24;96542.25;;;20.87;100.00
40502;BME280;29631;49.168;9.848;2022-10-16T02:36:51;96541.16;;;20.93;100.00
40502;BME280;29631;49.168;9.848;2022-10-16T02:39:18;96526.75;;;20.84;100.00
40502;BME280;29631;49.168;9.848;2022-10-16T02:41:45;96546.28;;;20.94;100.00
40502;BME280;29631;49.168;9.848;2022-10-16T02:44:11;96532.06;;;20.89;100.00
40502;BME280;29631;49.168;9.848;2022-10-16T02:46:36;96546.28;;;20.94;100.00
40502;BME280;29631;49.168;9.848;2022-10-16T02:49:02;96547.34;;;20.98;100.00
40502;BME280;29631;49.168;9.848;2022-10-16T02:51:28;96560.72;;;21.03;100.00
40502;BME280;29631;49.168;9.848;2022-10-16T02:53:55;96559.63;;;21.09;100.00
40502;BME280;29631;49.168;9.848;2022-10-16T02:56:21;96541.97;;;20.98;100.00
40502;BME280;29631;49.168;9.848;2022-10-16T02:58:47;96554.28;;;21.04;100.00
40502;BME280;29631;49.168;9.848;2022-10-16T03:01:12;96551.91;;;20.98;100.00
40502;BME280;29631;49.168;9.848;2022-10-16T03:03:39;96562.63;;;20.98;100.00
40502;BME280;29631;49.168;9.848;2022-10-16T03:06:05;96558.09;;;20.88;100.00
40502;BME280;29631;49.168;9.848;2022-10-16T03:08:31;96550.59;;;20.80;100.00
40502;BME280;29631;49.168;9.848;2022-10-16T03:10:57;96556.47;;;20.87;100.00
40502;BME280;29631;49.168;9.848;2022-10-16T03:13:23;96543.09;;;20.77;100.00
40502;BME280;29631;49.168;9.848;2022-10-16T03:15:48;96557.00;;;20.89;100.00
40502;BME280;29631;49.168;9.848;2022-10-16T03:18:15;96558.09;;;20.88;100.00
40502;BME280;29631;49.168;9.848;2022-10-16T03:20:42;96548.94;;;20.89;100.00
40502;BME280;29631;49.168;9.848;2022-10-16T03:23:08;96564.22;;;20.94;100.00
40502;BME280;29631;49.168;9.848;2022-10-16T03:25:34;96563.41;;;20.98;100.00
40502;BME280;29631;49.168;9.848;2022-10-16T03:28:00;96540.94;;;20.84;100.00
40502;BME280;29631;49.168;9.848;2022-10-16T03:30:26;96554.84;;;20.96;100.00
40502;BME280;29631;49.168;9.848;2022-10-16T03:32:52;96542.81;;;20.84;100.00
40502;BME280;29631;49.168;9.848;2022-10-16T03:35:23;96561.31;;;20.95;100.00
40502;BME280;29631;49.168;9.848;2022-10-16T03:37:49;96552.16;;;20.91;100.00
40502;BME280;29631;49.168;9.848;2022-10-16T03:40:16;96513.88;;;20.61;100.00
40502;BME280;29631;49.168;9.848;2022-10-16T03:42:43;96554.06;;;20.86;100.00
40502;BME280;29631;49.168;9.848;2022-10-16T03:45:10;96559.69;;;20.89;100.00
40502;BME280;29631;49.168;9.848;2022-10-16T03:47:36;96537.75;;;20.82;100.00
40502;BME280;29631;49.168;9.848;2022-10-16T03:50:03;96527.78;;;20.73;100.00
40502;BME280;29631;49.168;9.848;2022-10-16T03:52:28;96557.00;;;20.84;100.00
40502;BME280;29631;49.168;9.848;2022-10-16T03:54:54;96551.94;;;20.83;100.00
40502;BME280;29631;49.168;9.848;2022-10-16T03:57:20;96535.59;;;20.54;100.00
40502;BME280;29631;49.168;9.848;2022-10-16T03:59:46;96562.66;;;20.78;100.00
40502;BME280;29631;49.168;9.848;2022-10-16T04:02:12;96564.81;;;20.76;100.00
40502;BME280;29631;49.168;9.848;2022-10-16T04:04:38;96581.69;;;20.76;100.00
40502;BME280;29631;49.168;9.848;2022-10-16T04:07:04;96572.84;;;20.76;100.00
40502;BME280;29631;49.168;9.848;2022-10-16T04:09:30;96567.22;;;20.77;100.00
40502;BME280;29631;49.168;9.848;2022-10-16T04:11:56;96569.91;;;20.82;100.00
40502;BME280;29631;49.168;9.848;2022-10-16T04:14:22;96572.03;;;20.85;100.00
40502;BME280;29631;49.168;9.848;2022-10-16T04:16:47;96565.03;;;20.89;100.00
40502;BME280;29631;49.168;9.848;2022-10-16T04:19:13;96562.34;;;20.89;100.00
40502;BME280;29631;49.168;9.848;2022-10-16T04:21:39;96556.47;;;20.87;100.00
40502;BME280;29631;49.168;9.848;2022-10-16T04:24:05;96549.53;;;20.81;100.00
40502;BME280;29631;49.168;9.848;2022-10-16T04:26:30;96578.44;;;20.99;100.00
40502;BME280;29631;49.168;9.848;2022-10-16T04:28:56;96566.66;;;20.90;100.00
40502;BME280;29631;49.168;9.848;2022-10-16T04:31:22;96561.31;;;20.95;100.00
40502;BME280;29631;49.168;9.848;2022-10-16T04:33:48;96564.47;;;21.02;100.00
40502;BME280;29631;49.168;9.848;2022-10-16T04:36:14;96568.75;;;21.03;100.00
40502;BME280;29631;49.168;9.848;2022-10-16T04:38:39;96555.94;;;20.95;100.00
40502;BME280;29631;49.168;9.848;2022-10-16T04:41:07;96580.03;;;21.05;100.00
40502;BME280;29631;49.168;9.848;2022-10-16T04:43:34;96583.81;;;20.99;100.00
40502;BME280;29631;49.168;9.848;2022-10-16T04:45:59;96587.31;;;20.90;100.00
40502;BME280;29631;49.168;9.848;2022-10-16T04:48:26;96579.81;;;20.77;100.00
40502;BME280;29631;49.168;9.848;2022-10-16T04:50:51;96581.94;;;20.70;100.00
40502;BME280;29631;49.168;9.848;2022-10-16T04:53:17;96599.38;;;20.77;100.00
40502;BME280;29631;49.168;9.848;2022-10-16T04:55:43;96609.56;;;20.75;100.00
40502;BME280;29631;49.168;9.848;2022-10-16T04:58:09;96606.06;;;20.65;100.00
40502;BME280;29631;49.168;9.848;2022-10-16T05:00:35;96622.41;;;20.68;100.00
40502;BME280;29631;49.168;9.848;2022-10-16T05:03:01;96608.47;;;20.56;100.00
40502;BME280;29631;49.168;9.848;2022-10-16T05:05:31;96630.41;;;20.63;100.00
40502;BME280;29631;49.168;9.848;2022-10-16T05:07:57;96614.63;;;20.52;100.00
40502;BME280;29631;49.168;9.848;2022-10-16T05:10:22;96620.25;;;20.55;100.00
40502;BME280;29631;49.168;9.848;2022-10-16T05:12:48;96610.63;;;20.54;100.00
40502;BME280;29631;49.168;9.848;2022-10-16T05:15:14;96626.69;;;20.64;100.00
40502;BME280;29631;49.168;9.848;2022-10-16T05:17:40;96619.44;;;20.60;100.00
40502;BME280;29631;49.168;9.848;2022-10-16T05:20:06;96620.25;;;20.55;100.00
40502;BME280;29631;49.168;9.848;2022-10-16T05:22:32;96616.53;;;20.56;100.00
40502;BME280;29631;49.168;9.848;2022-10-16T05:24:58;96602.59;;;20.49;100.00
40502;BME280;29631;49.168;9.848;2022-10-16T05:27:23;96630.41;;;20.63;100.00
40502;BME280;29631;49.168;9.848;2022-10-16T05:29:49;96630.69;;;20.62;100.00
40502;BME280;29631;49.168;9.848;2022-10-16T05:32:17;96628.28;;;20.65;100.00
40502;BME280;29631;49.168;9.848;2022-10-16T05:34:44;96642.78;;;20.69;100.00
40502;BME280;29631;49.168;9.848;2022-10-16T05:37:10;96630.41;;;20.63;100.00
40502;BME280;29631;49.168;9.848;2022-10-16T05:39:38;96623.72;;;20.61;100.00
40502;BME280;29631;49.168;9.848;2022-10-16T05:42:04;96626.69;;;20.59;100.00
40502;BME280;29631;49.168;9.848;2022-10-16T05:44:30;96640.88;;;20.70;100.00
40502;BME280;29631;49.168;9.848;2022-10-16T05:46:56;96634.72;;;20.64;100.00
40502;BME280;29631;49.168;9.848;2022-10-16T05:49:22;96635.00;;;20.63;100.00
40502;BME280;29631;49.168;9.848;2022-10-16T05:51:48;96622.94;;;20.55;100.00
40502;BME280;29631;49.168;9.848;2022-10-16T05:54:14;96621.59;;;20.58;100.00
40502;BME280;29631;49.168;9.848;2022-10-16T05:56:39;96624.28;;;20.58;100.00
40502;BME280;29631;49.168;9.848;2022-10-16T05:59:05;96638.47;;;20.63;100.00
40502;BME280;29631;49.168;9.848;2022-10-16T06:01:32;96650.56;;;20.66;100.00
40502;BME280;29631;49.168;9.848;2022-10-16T06:03:58;96636.31;;;20.65;100.00
40502;BME280;29631;49.168;9.848;2022-10-16T06:06:27;96642.22;;;20.67;100.00
40502;BME280;29631;49.168;9.848;2022-10-16T06:08:55;96640.88;;;20.70;100.00
40502;BME280;29631;49.168;9.848;2022-10-16T06:11:24;96642.25;;;20.77;100.00
40502;BME280;29631;49.168;9.848;2022-10-16T06:13:53;96655.91;;;20.86;100.00
40502;BME280;29631;49.168;9.848;2022-10-16T06:16:20;96642.53;;;20.81;100.00
40502;BME280;29631;49.168;9.848;2022-10-16T06:18:46;96652.16;;;20.82;100.00
40502;BME280;29631;49.168;9.848;2022-10-16T06:21:19;96661.03;;;20.82;100.00
40502;BME280;29631;49.168;9.848;2022-10-16T06:23:45;96657.25;;;20.83;100.00
40502;BME280;29631;49.168;9.848;2022-10-16T06:26:14;96655.66;;;20.87;100.00
40502;BME280;29631;49.168;9.848;2022-10-16T06:28:40;96651.91;;;20.83;100.00
40502;BME280;29631;49.168;9.848;2022-10-16T06:31:09;96669.06;;;20.97;100.00
40502;BME280;29631;49.168;9.848;2022-10-16T06:33:36;96668.78;;;20.94;100.00
40502;BME280;29631;49.168;9.848;2022-10-16T06:36:04;96677.38;;;21.01;100.00
40502;BME280;29631;49.168;9.848;2022-10-16T06:38:31;96677.63;;;21.04;100.00
40502;BME280;29631;49.168;9.848;2022-10-16T06:40:58;96686.22;;;21.11;100.00
40502;BME280;29631;49.168;9.848;2022-10-16T06:43:24;96692.09;;;21.18;100.00
40502;BME280;29631;49.168;9.848;2022-10-16T06:45:55;96691.03;;;21.14;100.00
40502;BME280;29631;49.168;9.848;2022-10-16T06:48:21;96678.16;;;21.11;100.00
40502;BME280;29631;49.168;9.848;2022-10-16T06:51:09;96700.69;;;21.20;100.00
40502;BME280;29631;49.168;9.848;2022-10-16T06:53:38;96689.44;;;21.13;100.00
40502;BME280;29631;49.168;9.848;2022-10-16T06:56:16;96687.56;;;21.09;100.00
40502;BME280;29631;49.168;9.848;2022-10-16T06:58:42;96677.09;;;21.02;100.00
40502;BME280;29631;49.168;9.848;2022-10-16T07:01:09;96688.63;;;21.08;100.00
40502;BME280;29631;49.168;9.848;2022-10-16T07:03:38;96659.69;;;20.90;100.00
40502;BME280;29631;49.168;9.848;2022-10-16T07:06:06;96683.00;;;21.04;100.00
40502;BME280;29631;49.168;9.848;2022-10-16T07:08:34;96666.91;;;20.89;100.00
40502;BME280;29631;49.168;9.848;2022-10-16T07:11:05;96692.13;;;20.98;100.00
40502;BME280;29631;49.168;9.848;2022-10-16T07:13:36;96695.88;;;20.87;100.00
40502;BME280;29631;49.168;9.848;2022-10-16T07:16:12;96701.25;;;20.82;100.00
40502;BME280;29631;49.168;9.848;2022-10-16T07:18:38;96720.53;;;20.84;100.00
40502;BME280;29631;49.168;9.848;2022-10-16T07:21:29;96688.31;;;20.59;100.00
40502;BME280;29631;49.168;9.848;2022-10-16T07:23:57;96716.50;;;20.77;100.00
40502;BME280;29631;49.168;9.848;2022-10-16T07:26:25;96714.09;;;20.75;100.00
40502;BME280;29631;49.168;9.848;2022-10-16T07:28:51;96719.47;;;20.75;100.00
40502;BME280;29631;49.168;9.848;2022-10-16T07:31:19;96724.28;;;20.78;100.00
40502;BME280;29631;49.168;9.848;2022-10-16T07:33:46;96728.03;;;20.77;100.00
40502;BME280;29631;49.168;9.848;2022-10-16T07:36:15;96723.69;;;20.71;100.00
40502;BME280;29631;49.168;9.848;2022-10-16T07:38:41;96745.72;;;20.78;100.00
40502;BME280;29631;49.168;9.848;2022-10-16T07:41:12;96736.06;;;20.77;100.00
40502;BME280;29631;49.168;9.848;2022-10-16T07:43:38;96762.34;;;20.85;100.00
40502;BME280;29631;49.168;9.848;2022-10-16T07:46:04;96760.22;;;20.87;100.00
40502;BME280;29631;49.168;9.848;2022-10-16T07:48:33;96757.25;;;20.89;100.00
40502;BME280;29631;49.168;9.848;2022-10-16T07:51:04;96748.41;;;20.83;100.00
40502;BME280;29631;49.168;9.848;2022-10-16T07:53:31;96737.66;;;20.83;100.00
40502;BME280;29631;49.168;9.848;2022-10-16T07:56:03;96762.91;;;20.97;100.00
40502;BME280;29631;49.168;9.848;2022-10-16T07:58:30;96773.09;;;21.05;100.00
40502;BME280;29631;49.168;9.848;2022-10-16T08:00:57;96763.44;;;21.04;100.00
40502;BME280;29631;49.168;9.848;2022-10-16T08:03:24;96764.25;;;21.10;100.00
40502;BME280;29631;49.168;9.848;2022-10-16T08:05:51;96769.34;;;21.16;100.00
40502;BME280;29631;49.168;9.848;2022-10-16T08:08:18;96770.16;;;21.17;100.00
40502;BME280;29631;49.168;9.848;2022-10-16T08:10:44;96773.91;;;21.16;100.00
40502;BME280;29631;49.168;9.848;2022-10-16T08:13:10;96769.88;;;21.13;100.00
40502;BME280;29631;49.168;9.848;2022-10-16T08:15:36;96777.94;;;21.18;100.00
40502;BME280;29631;49.168;9.848;2022-10-16T08:18:04;96778.44;;;21.15;100.00
40502;BME280;29631;49.168;9.848;2022-10-16T08:20:33;96783.03;;;21.15;100.00
40502;BME280;29631;49.168;9.848;2022-10-16T08:23:00;96784.91;;;21.14;100.00
40502;BME280;29631;49.168;9.848;2022-10-16T08:25:26;96784.38;;;21.07;100.00
40502;BME280;29631;49.168;9.848;2022-10-16T08:27:52;96791.63;;;21.17;100.00
40502;BME280;29631;49.168;9.848;2022-10-16T08:30:20;96788.38;;;21.15;100.00
40502;BME280;29631;49.168;9.848;2022-10-16T08:32:46;96767.22;;;21.08;100.00
40502;BME280;29631;49.168;9.848;2022-10-16T08:35:13;96761.84;;;21.08;100.00
40502;BME280;29631;49.168;9.848;2022-10-16T08:37:40;96789.47;;;21.28;100.00
40502;BME280;29631;49.168;9.848;2022-10-16T08:40:13;96783.03;;;21.34;100.00
40502;BME280;29631;49.168;9.848;2022-10-16T08:51:22;96782.75;;;21.51;100.00
40502;BME280;29631;49.168;9.848;2022-10-16T08:53:56;96787.06;;;21.52;100.00
40502;BME280;29631;49.168;9.848;2022-10-16T08:56:25;96788.69;;;21.58;100.00
40502;BME280;29631;49.168;9.848;2022-10-16T08:58:52;96786.50;;;21.60;100.00
40502;BME280;29631;49.168;9.848;2022-10-16T09:01:22;96786.00;;;21.63;100.00
40502;BME280;29631;49.168;9.848;2022-10-16T09:12:41;96809.06;;;21.79;100.00
40502;BME280;29631;49.168;9.848;2022-10-16T09:15:28;96808.75;;;21.90;100.00
40502;BME280;29631;49.168;9.848;2022-10-16T09:20:56;96819.69;;;22.18;100.00
40502;BME280;29631;49.168;9.848;2022-10-16T09:23:30;96815.38;;;22.27;100.00
40502;BME280;29631;49.168;9.848;2022-10-16T09:25:58;96791.75;;;22.19;100.00
40502;BME280;29631;49.168;9.848;2022-10-16T09:28:24;96793.88;;;22.27;100.00
40502;BME280;29631;49.168;9.848;2022-10-16T09:30:51;96820.19;;;22.40;100.00
40502;BME280;29631;49.168;9.848;2022-10-16T09:33:20;96803.56;;;22.28;100.00
40502;BME280;29631;49.168;9.848;2022-10-16T09:35:53;96811.03;;;22.46;100.00
40502;BME280;29631;49.168;9.848;2022-10-16T09:38:24;96817.44;;;22.60;100.00
40502;BME280;29631;49.168;9.848;2022-10-16T09:40:50;96814.75;;;22.60;100.00
40502;BME280;29631;49.168;9.848;2022-10-16T09:46:02;96824.94;;;22.68;100.00
40502;BME280;29631;49.168;9.848;2022-10-16T09:48:38;96835.66;;;22.73;100.00
40502;BME280;29631;49.168;9.848;2022-10-16T09:51:16;96838.88;;;22.75;100.00
40502;BME280;29631;49.168;9.848;2022-10-16T09:53:45;96837.78;;;22.76;100.00
40502;BME280;29631;49.168;9.848;2022-10-16T09:56:22;96827.59;;;22.73;100.00
40502;BME280;29631;49.168;9.848;2022-10-16T09:58:56;96857.09;;;22.88;100.00
40502;BME280;29631;49.168;9.848;2022-10-16T10:01:35;96834.47;;;22.89;100.00
40502;BME280;29631;49.168;9.848;2022-10-16T10:04:04;96829.34;;;22.92;100.00
40502;BME280;29631;49.168;9.848;2022-10-16T10:06:34;96842.47;;;23.09;100.00
40502;BME280;29631;49.168;9.848;2022-10-16T10:12:29;96850.38;;;23.39;100.00
40502;BME280;29631;49.168;9.848;2022-10-16T10:15:21;96809.81;;;23.25;100.00
40502;BME280;29631;49.168;9.848;2022-10-16T10:17:57;96859.03;;;23.64;100.00
40502;BME280;29631;49.168;9.848;2022-10-16T10:20:33;96863.50;;;23.83;100.00
40502;BME280;29631;49.168;9.848;2022-10-16T10:23:23;96873.63;;;23.96;100.00
40502;BME280;29631;49.168;9.848;2022-10-16T10:26:20;96873.97;;;24.13;100.00
40502;BME280;29631;49.168;9.848;2022-10-16T10:29:04;96870.09;;;24.24;100.00
40502;BME280;29631;49.168;9.848;2022-10-16T10:31:45;96868.09;;;24.34;100.00
40502;BME280;29631;49.168;9.848;2022-10-16T10:36:57;96863.38;;;24.50;100.00
40502;BME280;29631;49.168;9.848;2022-10-16T10:39:35;96867.50;;;24.66;100.00
40502;BME280;29631;49.168;9.848;2022-10-16T10:42:53;96861.97;;;24.76;100.00
40502;BME280;29631;49.168;9.848;2022-10-16T10:46:00;96861.06;;;24.85;100.00
40502;BME280;29631;49.168;9.848;2022-10-16T10:49:13;96863.34;;;24.96;100.00
40502;BME280;29631;49.168;9.848;2022-10-16T10:51:59;96873.19;;;25.06;99.85
40502;BME280;29631;49.168;9.848;2022-10-16T10:54:45;96848.75;;;24.97;100.00
40502;BME280;29631;49.168;9.848;2022-10-16T10:57:58;96879.75;;;25.23;100.00
40502;BME280;29631;49.168;9.848;2022-10-16T11:05:56;96857.25;;;25.46;98.88
40502;BME280;29631;49.168;9.848;2022-10-16T11:08:34;96854.50;;;25.51;98.37
40502;BME280;29631;49.168;9.848;2022-10-16T11:11:23;96864.97;;;25.71;98.22
40502;BME280;29631;49.168;9.848;2022-10-16T11:14:19;96855.75;;;25.72;97.81
40502;BME280;29631;49.168;9.848;2022-10-16T11:16:56;96867.53;;;25.81;97.74
40502;BME280;29631;49.168;9.848;2022-10-16T11:20:02;96874.47;;;25.87;97.80
40502;BME280;29631;49.168;9.848;2022-10-16T11:23:14;96872.09;;;25.99;98.37
40502;BME280;29631;49.168;9.848;2022-10-16T11:25:43;96854.25;;;25.98;97.88
40502;BME280;29631;49.168;9.848;2022-10-16T11:28:20;96863.41;;;26.02;96.54
40502;BME280;29631;49.168;9.848;2022-10-16T11:30:51;96857.31;;;26.10;96.83
40502;BME280;29631;49.168;9.848;2022-10-16T11:37:05;96868.13;;;26.10;95.70
40502;BME280;29631;49.168;9.848;2022-10-16T11:39:35;96856.28;;;26.06;96.32
40502;BME280;29631;49.168;9.848;2022-10-16T11:42:22;96853.38;;;26.02;95.53
40502;BME280;29631;49.168;9.848;2022-10-16T11:47:42;96854.53;;;26.15;94.87
40502;BME280;29631;49.168;9.848;2022-10-16T11:55:40;96858.19;;;26.37;94.03
40502;BME280;29631;49.168;9.848;2022-10-16T12:04:17;96840.75;;;26.56;94.04
40502;BME280;29631;49.168;9.848;2022-10-16T12:07:07;96854.56;;;26.68;93.96
40502;BME280;29631;49.168;9.848;2022-10-16T12:09:39;96839.47;;;26.67;93.96
40502;BME280;29631;49.168;9.848;2022-10-16T12:15:20;96853.19;;;26.84;93.45
40502;BME280;29631;49.168;9.848;2022-10-16T12:17:47;96846.34;;;26.87;93.28
40502;BME280;29631;49.168;9.848;2022-10-16T12:22:55;96850.34;;;26.89;93.32
40502;BME280;29631;49.168;9.848;2022-10-16T12:25:40;96848.94;;;26.92;94.15
40502;BME280;29631;49.168;9.848;2022-10-16T12:30:41;96863.88;;;27.16;93.97
40502;BME280;29631;49.168;9.848;2022-10-16T12:33:41;96835.06;;;27.20;93.93
40502;BME280;29631;49.168;9.848;2022-10-16T12:36:26;96853.50;;;27.45;93.24
40502;BME280;29631;49.168;9.848;2022-10-16T12:38:53;96851.63;;;27.54;93.22
40502;BME280;29631;49.168;9.848;2022-10-16T12:41:35;96821.16;;;27.48;92.42
40502;BME280;29631;49.168;9.848;2022-10-16T12:44:03;96804.97;;;27.57;92.93
40502;BME280;29631;49.168;9.848;2022-10-16T12:51:42;96853.66;;;28.66;90.52
40502;BME280;29631;49.168;9.848;2022-10-16T13:02:59;96858.66;;;29.53;88.26
40502;BME280;29631;49.168;9.848;2022-10-16T13:06:08;96858.03;;;29.40;88.48
40502;BME280;29631;49.168;9.848;2022-10-16T13:15:10;96883.00;;;29.75;87.32
40502;BME280;29631;49.168;9.848;2022-10-16T13:18:15;96886.50;;;29.84;88.16
40502;BME280;29631;49.168;9.848;2022-10-16T13:28:47;96866.13;;;31.65;83.35
40502;BME280;29631;49.168;9.848;2022-10-16T13:31:21;96871.84;;;31.92;82.37
40502;BME280;29631;49.168;9.848;2022-10-16T13:33:52;96857.63;;;31.66;82.70
40502;BME280;29631;49.168;9.848;2022-10-16T13:36:33;96867.03;;;31.48;83.23
40502;BME280;29631;49.168;9.848;2022-10-16T13:39:26;96880.59;;;31.07;83.21
40502;BME280;29631;49.168;9.848;2022-10-16T13:42:04;96880.34;;;30.92;83.10
40502;BME280;29631;49.168;9.848;2022-10-16T13:44:47;96869.09;;;30.65;83.68
40502;BME280;29631;49.168;9.848;2022-10-16T13:47:19;96878.09;;;30.57;84.04
40502;BME280;29631;49.168;9.848;2022-10-16T13:49:46;96873.13;;;30.42;83.89
40502;BME280;29631;49.168;9.848;2022-10-16T13:52:20;96869.00;;;30.27;83.46
40502;BME280;29631;49.168;9.848;2022-10-16T13:54:47;96830.66;;;29.87;84.11
40502;BME280;29631;49.168;9.848;2022-10-16T13:57:17;96861.72;;;30.03;82.87
40502;BME280;29631;49.168;9.848;2022-10-16T13:59:43;96857.53;;;29.88;83.12
40502;BME280;29631;49.168;9.848;2022-10-16T14:02:22;96876.59;;;29.88;82.05
40502;BME280;29631;49.168;9.848;2022-10-16T14:04:50;96869.72;;;29.74;83.25
40502;BME280;29631;49.168;9.848;2022-10-16T14:07:25;96857.72;;;29.58;82.95
40502;BME280;29631;49.168;9.848;2022-10-16T14:09:52;96834.03;;;29.42;83.64
40502;BME280;29631;49.168;9.848;2022-10-16T14:12:20;96878.69;;;29.57;84.43
40502;BME280;29631;49.168;9.848;2022-10-16T14:14:50;96872.09;;;29.42;84.13
40502;BME280;29631;49.168;9.848;2022-10-16T14:17:28;96884.56;;;29.42;85.09
40502;BME280;29631;49.168;9.848;2022-10-16T14:19:58;96871.41;;;29.28;85.96
40502;BME280;29631;49.168;9.848;2022-10-16T14:22:36;96878.28;;;29.25;85.77
40502;BME280;29631;49.168;9.848;2022-10-16T14:27:57;96882.56;;;29.09;86.32
40502;BME280;29631;49.168;9.848;2022-10-16T14:30:25;96865.28;;;28.97;86.26
40502;BME280;29631;49.168;9.848;2022-10-16T14:33:01;96865.25;;;28.88;86.93
40502;BME280;29631;49.168;9.848;2022-10-16T14:35:37;96877.06;;;28.84;86.87
40502;BME280;29631;49.168;9.848;2022-10-16T14:38:06;96874.13;;;28.72;87.38
40502;BME280;29631;49.168;9.848;2022-10-16T14:40:48;96865.41;;;28.53;87.55
40502;BME280;29631;49.168;9.848;2022-10-16T14:43:24;96881.53;;;28.50;87.74
40502;BME280;29631;49.168;9.848;2022-10-16T14:45:56;96880.66;;;28.41;88.22
40502;BME280;29631;49.168;9.848;2022-10-16T14:48:22;96884.31;;;28.36;87.91
40502;BME280;29631;49.168;9.848;2022-10-16T14:50:49;96872.84;;;28.17;88.08
40502;BME280;29631;49.168;9.848;2022-10-16T14:53:15;96882.91;;;28.17;88.68
40502;BME280;29631;49.168;9.848;2022-10-16T14:55:42;96880.00;;;28.13;88.77
40502;BME280;29631;49.168;9.848;2022-10-16T14:58:20;96879.78;;;28.01;88.56
40502;BME280;29631;49.168;9.848;2022-10-16T15:00:47;96861.81;;;27.84;88.44
40502;BME280;29631;49.168;9.848;2022-10-16T15:03:13;96871.63;;;27.80;89.00
40502;BME280;29631;49.168;9.848;2022-10-16T15:05:39;96875.91;;;27.72;89.10
40502;BME280;29631;49.168;9.848;2022-10-16T15:08:05;96883.53;;;27.70;89.28
40502;BME280;29631;49.168;9.848;2022-10-16T15:10:32;96875.53;;;27.65;89.73
40502;BME280;29631;49.168;9.848;2022-10-16T15:12:58;96878.94;;;27.57;89.64